sensor_id;sensor_type;location;lat;lon;timestamp;temperature;humidity
60313;DHT22;46158;52.850;6.970;2022-09-09T00:00:53;20.00;83.80
60313;DHT22;46158;52.850;6.970;2022-09-09T00:03:25;20.00;83.80
60313;DHT22;46158;52.850;6.970;2022-09-09T00:06:04;20.00;83.80
60313;DHT22;46158;52.850;6.970;2022-09-09T00:11:26;20.00;83.70
60313;DHT22;46158;52.850;6.970;2022-09-09T00:13:54;20.00;83.80
60313;DHT22;46158;52.850;6.970;2022-09-09T00:16:27;19.90;83.70
60313;DHT22;46158;52.850;6.970;2022-09-09T00:21:19;19.90;83.80
60313;DHT22;46158;52.850;6.970;2022-09-09T00:23:53;19.90;83.70
60313;DHT22;46158;52.850;6.970;2022-09-09T00:26:30;19.90;84.40
60313;DHT22;46158;52.850;6.970;2022-09-09T00:31:38;19.90;83.60
60313;DHT22;46158;52.850;6.970;2022-09-09T00:34:12;19.90;83.70
60313;DHT22;46158;52.850;6.970;2022-09-09T00:36:40;19.90;83.60
60313;DHT22;46158;52.850;6.970;2022-09-09T00:39:12;19.90;83.70
60313;DHT22;46158;52.850;6.970;2022-09-09T00:47:04;19.90;83.50
60313;DHT22;46158;52.850;6.970;2022-09-09T00:49:54;19.90;83.60
60313;DHT22;46158;52.850;6.970;2022-09-09T00:52:40;19.80;83.50
60313;DHT22;46158;52.850;6.970;2022-09-09T00:57:52;19.80;83.60
60313;DHT22;46158;52.850;6.970;2022-09-09T01:05:50;19.80;83.50
60313;DHT22;46158;52.850;6.970;2022-09-09T01:10:59;19.80;83.50
60313;DHT22;46158;52.850;6.970;2022-09-09T01:13:26;19.70;83.40
60313;DHT22;46158;52.850;6.970;2022-09-09T01:15:53;19.80;83.50
60313;DHT22;46158;52.850;6.970;2022-09-09T01:18:22;19.80;83.40
60313;DHT22;46158;52.850;6.970;2022-09-09T01:20:53;19.80;83.40
60313;DHT22;46158;52.850;6.970;2022-09-09T01:28:34;19.70;83.30
60313;DHT22;46158;52.850;6.970;2022-09-09T01:31:06;19.70;83.20
60313;DHT22;46158;52.850;6.970;2022-09-09T01:33:33;19.70;83.20
60313;DHT22;46158;52.850;6.970;2022-09-09T01:36:03;19.70;83.30
60313;DHT22;46158;52.850;6.970;2022-09-09T01:38:32;19.70;83.20
60313;DHT22;46158;52.850;6.970;2022-09-09T01:40:59;19.70;83.30
60313;DHT22;46158;52.850;6.970;2022-09-09T01:43:25;19.70;83.20
60313;DHT22;46158;52.850;6.970;2022-09-09T01:45:53;19.70;83.20
60313;DHT22;46158;52.850;6.970;2022-09-09T01:48:22;19.70;83.20
60313;DHT22;46158;52.850;6.970;2022-09-09T01:50:48;19.70;83.20
60313;DHT22;46158;52.850;6.970;2022-09-09T01:53:15;19.70;83.20
60313;DHT22;46158;52.850;6.970;2022-09-09T01:55:51;19.70;83.20
60313;DHT22;46158;52.850;6.970;2022-09-09T01:58:32;19.70;83.90
60313;DHT22;46158;52.850;6.970;2022-09-09T02:03:57;19.60;83.10
60313;DHT22;46158;52.850;6.970;2022-09-09T02:06:35;19.60;83.10
60313;DHT22;46158;52.850;6.970;2022-09-09T02:09:05;19.60;83.10
60313;DHT22;46158;52.850;6.970;2022-09-09T02:11:32;19.60;83.20
60313;DHT22;46158;52.850;6.970;2022-09-09T02:14:30;19.60;83.20
60313;DHT22;46158;52.850;6.970;2022-09-09T02:17:03;19.60;82.90
60313;DHT22;46158;52.850;6.970;2022-09-09T02:19:46;19.60;83.20
60313;DHT22;46158;52.850;6.970;2022-09-09T02:22:16;19.60;83.00
60313;DHT22;46158;52.850;6.970;2022-09-09T02:24:42;19.60;83.20
60313;DHT22;46158;52.850;6.970;2022-09-09T02:27:10;19.60;83.20
60313;DHT22;46158;52.850;6.970;2022-09-09T02:29:42;19.60;83.10
60313;DHT22;46158;52.850;6.970;2022-09-09T02:32:14;19.60;83.10
60313;DHT22;46158;52.850;6.970;2022-09-09T02:34:48;19.60;83.10
60313;DHT22;46158;52.850;6.970;2022-09-09T02:37:20;19.60;83.10
60313;DHT22;46158;52.850;6.970;2022-09-09T02:39:48;19.50;83.10
60313;DHT22;46158;52.850;6.970;2022-09-09T02:42:13;19.50;83.10
60313;DHT22;46158;52.850;6.970;2022-09-09T02:44:40;19.50;83.10
60313;DHT22;46158;52.850;6.970;2022-09-09T02:52:33;19.50;82.90
60313;DHT22;46158;52.850;6.970;2022-09-09T02:55:07;19.50;83.00
60313;DHT22;46158;52.850;6.970;2022-09-09T02:57:36;19.50;83.00
60313;DHT22;46158;52.850;6.970;2022-09-09T03:00:04;19.50;83.00
60313;DHT22;46158;52.850;6.970;2022-09-09T03:02:30;19.50;83.10
60313;DHT22;46158;52.850;6.970;2022-09-09T03:04:56;19.50;83.00
60313;DHT22;46158;52.850;6.970;2022-09-09T03:07:22;19.50;83.00
60313;DHT22;46158;52.850;6.970;2022-09-09T03:09:47;19.50;83.00
60313;DHT22;46158;52.850;6.970;2022-09-09T03:12:14;19.50;83.00
60313;DHT22;46158;52.850;6.970;2022-09-09T03:14:40;19.50;83.00
60313;DHT22;46158;52.850;6.970;2022-09-09T03:17:06;19.50;83.00
60313;DHT22;46158;52.850;6.970;2022-09-09T03:19:32;19.50;83.00
60313;DHT22;46158;52.850;6.970;2022-09-09T03:21:59;19.50;83.00
60313;DHT22;46158;52.850;6.970;2022-09-09T03:24:25;19.50;82.90
60313;DHT22;46158;52.850;6.970;2022-09-09T03:26:51;19.50;83.00
60313;DHT22;46158;52.850;6.970;2022-09-09T03:29:17;19.50;82.90
60313;DHT22;46158;52.850;6.970;2022-09-09T03:31:44;19.50;82.90
60313;DHT22;46158;52.850;6.970;2022-09-09T03:34:10;19.40;82.90
60313;DHT22;46158;52.850;6.970;2022-09-09T03:36:36;19.40;82.90
60313;DHT22;46158;52.850;6.970;2022-09-09T03:39:02;19.50;82.90
60313;DHT22;46158;52.850;6.970;2022-09-09T03:41:28;19.40;82.80
60313;DHT22;46158;52.850;6.970;2022-09-09T03:43:54;19.40;82.90
60313;DHT22;46158;52.850;6.970;2022-09-09T03:46:22;19.40;82.90
60313;DHT22;46158;52.850;6.970;2022-09-09T03:48:47;19.40;82.80
60313;DHT22;46158;52.850;6.970;2022-09-09T03:51:13;19.40;82.80
60313;DHT22;46158;52.850;6.970;2022-09-09T03:53:39;19.40;82.90
60313;DHT22;46158;52.850;6.970;2022-09-09T03:56:06;19.40;82.80
60313;DHT22;46158;52.850;6.970;2022-09-09T03:58:33;19.40;82.80
60313;DHT22;46158;52.850;6.970;2022-09-09T04:01:25;19.40;82.80
60313;DHT22;46158;52.850;6.970;2022-09-09T04:03:51;19.40;82.70
60313;DHT22;46158;52.850;6.970;2022-09-09T04:06:18;19.40;83.50
60313;DHT22;46158;52.850;6.970;2022-09-09T04:08:45;19.40;82.80
60313;DHT22;46158;52.850;6.970;2022-09-09T04:11:14;19.40;82.80
60313;DHT22;46158;52.850;6.970;2022-09-09T04:13:42;19.40;82.90
60313;DHT22;46158;52.850;6.970;2022-09-09T04:16:11;19.40;82.80
60313;DHT22;46158;52.850;6.970;2022-09-09T04:18:37;19.40;82.80
60313;DHT22;46158;52.850;6.970;2022-09-09T04:21:04;19.40;82.80
60313;DHT22;46158;52.850;6.970;2022-09-09T04:23:30;19.40;82.80
60313;DHT22;46158;52.850;6.970;2022-09-09T04:25:57;19.40;82.80
60313;DHT22;46158;52.850;6.970;2022-09-09T04:28:26;19.40;82.80
60313;DHT22;46158;52.850;6.970;2022-09-09T04:30:52;19.40;82.80
60313;DHT22;46158;52.850;6.970;2022-09-09T04:33:18;19.40;82.80
60313;DHT22;46158;52.850;6.970;2022-09-09T04:35:46;19.40;82.70
60313;DHT22;46158;52.850;6.970;2022-09-09T04:38:13;19.40;82.70
60313;DHT22;46158;52.850;6.970;2022-09-09T04:40:48;19.40;82.70
60313;DHT22;46158;52.850;6.970;2022-09-09T04:43:14;19.30;82.70
60313;DHT22;46158;52.850;6.970;2022-09-09T04:45:40;19.40;82.80
60313;DHT22;46158;52.850;6.970;2022-09-09T04:48:06;19.30;82.70
60313;DHT22;46158;52.850;6.970;2022-09-09T04:50:32;19.30;82.70
60313;DHT22;46158;52.850;6.970;2022-09-09T04:53:02;19.30;82.70
60313;DHT22;46158;52.850;6.970;2022-09-09T04:55:29;19.30;83.30
60313;DHT22;46158;52.850;6.970;2022-09-09T04:57:55;19.30;82.70
60313;DHT22;46158;52.850;6.970;2022-09-09T05:00:22;19.30;82.70
60313;DHT22;46158;52.850;6.970;2022-09-09T05:02:47;19.30;82.70
60313;DHT22;46158;52.850;6.970;2022-09-09T05:05:13;19.30;82.70
60313;DHT22;46158;52.850;6.970;2022-09-09T05:07:39;19.30;82.70
60313;DHT22;46158;52.850;6.970;2022-09-09T05:10:04;19.30;82.70
60313;DHT22;46158;52.850;6.970;2022-09-09T05:12:31;19.30;82.70
60313;DHT22;46158;52.850;6.970;2022-09-09T05:14:57;19.30;82.70
60313;DHT22;46158;52.850;6.970;2022-09-09T05:17:23;19.30;82.70
60313;DHT22;46158;52.850;6.970;2022-09-09T05:19:49;19.30;82.70
60313;DHT22;46158;52.850;6.970;2022-09-09T05:22:21;19.20;82.70
60313;DHT22;46158;52.850;6.970;2022-09-09T05:24:49;19.30;82.70
60313;DHT22;46158;52.850;6.970;2022-09-09T05:27:17;19.30;82.80
60313;DHT22;46158;52.850;6.970;2022-09-09T05:29:43;19.20;82.70
60313;DHT22;46158;52.850;6.970;2022-09-09T05:32:10;19.20;82.70
60313;DHT22;46158;52.850;6.970;2022-09-09T05:34:35;19.30;83.40
60313;DHT22;46158;52.850;6.970;2022-09-09T05:37:03;19.20;82.70
60313;DHT22;46158;52.850;6.970;2022-09-09T05:39:30;19.20;82.70
60313;DHT22;46158;52.850;6.970;2022-09-09T05:41:55;19.20;82.70
60313;DHT22;46158;52.850;6.970;2022-09-09T05:44:21;19.20;82.70
60313;DHT22;46158;52.850;6.970;2022-09-09T05:46:49;19.20;82.70
60313;DHT22;46158;52.850;6.970;2022-09-09T05:49:15;19.20;82.70
60313;DHT22;46158;52.850;6.970;2022-09-09T05:51:41;19.20;82.70
60313;DHT22;46158;52.850;6.970;2022-09-09T05:54:08;19.20;82.70
60313;DHT22;46158;52.850;6.970;2022-09-09T05:56:34;19.20;82.70
60313;DHT22;46158;52.850;6.970;2022-09-09T05:59:00;19.20;82.70
60313;DHT22;46158;52.850;6.970;2022-09-09T06:01:31;19.20;82.70
60313;DHT22;46158;52.850;6.970;2022-09-09T06:03:58;19.20;82.70
60313;DHT22;46158;52.850;6.970;2022-09-09T06:06:26;19.20;82.80
60313;DHT22;46158;52.850;6.970;2022-09-09T06:08:53;19.20;82.70
60313;DHT22;46158;52.850;6.970;2022-09-09T06:11:22;19.20;82.80
60313;DHT22;46158;52.850;6.970;2022-09-09T06:13:49;19.20;82.80
60313;DHT22;46158;52.850;6.970;2022-09-09T06:16:18;19.20;83.50
60313;DHT22;46158;52.850;6.970;2022-09-09T06:18:44;19.20;82.90
60313;DHT22;46158;52.850;6.970;2022-09-09T06:21:19;19.20;82.90
60313;DHT22;46158;52.850;6.970;2022-09-09T06:23:46;19.20;82.80
60313;DHT22;46158;52.850;6.970;2022-09-09T06:26:15;19.20;82.90
60313;DHT22;46158;52.850;6.970;2022-09-09T06:28:43;19.20;82.90
60313;DHT22;46158;52.850;6.970;2022-09-09T06:31:11;19.20;82.70
60313;DHT22;46158;52.850;6.970;2022-09-09T06:33:39;19.20;82.90
60313;DHT22;46158;52.850;6.970;2022-09-09T06:36:10;19.20;82.90
60313;DHT22;46158;52.850;6.970;2022-09-09T06:38:36;19.20;82.90
60313;DHT22;46158;52.850;6.970;2022-09-09T06:41:02;19.20;82.90
60313;DHT22;46158;52.850;6.970;2022-09-09T06:43:28;19.20;82.90
60313;DHT22;46158;52.850;6.970;2022-09-09T06:45:59;19.20;82.90
60313;DHT22;46158;52.850;6.970;2022-09-09T06:48:26;19.20;82.80
60313;DHT22;46158;52.850;6.970;2022-09-09T06:51:07;19.20;82.80
60313;DHT22;46158;52.850;6.970;2022-09-09T06:53:34;19.20;82.70
60313;DHT22;46158;52.850;6.970;2022-09-09T06:56:02;19.20;82.80
60313;DHT22;46158;52.850;6.970;2022-09-09T06:58:28;19.20;82.80
60313;DHT22;46158;52.850;6.970;2022-09-09T07:01:04;19.20;82.80
60313;DHT22;46158;52.850;6.970;2022-09-09T07:03:31;19.20;82.70
60313;DHT22;46158;52.850;6.970;2022-09-09T07:05:57;19.20;82.80
60313;DHT22;46158;52.850;6.970;2022-09-09T07:08:23;19.20;83.50
60313;DHT22;46158;52.850;6.970;2022-09-09T07:10:53;19.20;82.80
60313;DHT22;46158;52.850;6.970;2022-09-09T07:13:26;19.20;82.80
60313;DHT22;46158;52.850;6.970;2022-09-09T07:15:52;19.20;82.70
60313;DHT22;46158;52.850;6.970;2022-09-09T07:18:19;19.20;82.80
60313;DHT22;46158;52.850;6.970;2022-09-09T07:20:54;19.20;82.80
60313;DHT22;46158;52.850;6.970;2022-09-09T07:23:20;19.20;82.70
60313;DHT22;46158;52.850;6.970;2022-09-09T07:25:46;19.10;82.70
60313;DHT22;46158;52.850;6.970;2022-09-09T07:28:13;19.10;82.70
60313;DHT22;46158;52.850;6.970;2022-09-09T07:30:39;19.20;82.70
60313;DHT22;46158;52.850;6.970;2022-09-09T07:33:06;19.20;82.70
60313;DHT22;46158;52.850;6.970;2022-09-09T07:35:31;19.20;82.70
60313;DHT22;46158;52.850;6.970;2022-09-09T07:37:57;19.20;82.70
60313;DHT22;46158;52.850;6.970;2022-09-09T07:40:24;19.20;82.80
60313;DHT22;46158;52.850;6.970;2022-09-09T07:42:50;19.20;82.80
60313;DHT22;46158;52.850;6.970;2022-09-09T07:45:15;19.20;82.80
60313;DHT22;46158;52.850;6.970;2022-09-09T07:47:41;19.20;82.80
60313;DHT22;46158;52.850;6.970;2022-09-09T07:50:09;19.20;82.80
60313;DHT22;46158;52.850;6.970;2022-09-09T07:52:35;19.20;82.90
60313;DHT22;46158;52.850;6.970;2022-09-09T07:55:02;19.20;83.00
60313;DHT22;46158;52.850;6.970;2022-09-09T07:57:29;19.20;83.00
60313;DHT22;46158;52.850;6.970;2022-09-09T07:59:56;19.20;83.00
60313;DHT22;46158;52.850;6.970;2022-09-09T08:02:23;19.20;83.10
60313;DHT22;46158;52.850;6.970;2022-09-09T08:04:51;19.20;83.20
60313;DHT22;46158;52.850;6.970;2022-09-09T08:07:17;19.30;83.20
60313;DHT22;46158;52.850;6.970;2022-09-09T08:09:43;19.30;83.30
60313;DHT22;46158;52.850;6.970;2022-09-09T08:12:09;19.30;83.40
60313;DHT22;46158;52.850;6.970;2022-09-09T08:14:38;19.40;83.40
60313;DHT22;46158;52.850;6.970;2022-09-09T08:17:05;19.40;83.50
60313;DHT22;46158;52.850;6.970;2022-09-09T08:19:31;19.40;83.60
60313;DHT22;46158;52.850;6.970;2022-09-09T08:21:59;19.50;83.60
60313;DHT22;46158;52.850;6.970;2022-09-09T08:24:27;19.50;83.60
60313;DHT22;46158;52.850;6.970;2022-09-09T08:26:52;19.50;83.50
60313;DHT22;46158;52.850;6.970;2022-09-09T08:29:19;19.50;84.20
60313;DHT22;46158;52.850;6.970;2022-09-09T08:31:50;19.50;83.50
60313;DHT22;46158;52.850;6.970;2022-09-09T08:34:17;19.60;83.60
60313;DHT22;46158;52.850;6.970;2022-09-09T08:36:45;19.60;83.60
60313;DHT22;46158;52.850;6.970;2022-09-09T08:39:13;19.60;83.60
60313;DHT22;46158;52.850;6.970;2022-09-09T08:50:12;19.70;83.80
60313;DHT22;46158;52.850;6.970;2022-09-09T08:53:00;19.70;84.50
60313;DHT22;46158;52.850;6.970;2022-09-09T08:55:41;19.70;83.70
60313;DHT22;46158;52.850;6.970;2022-09-09T08:58:28;19.70;83.80
60313;DHT22;46158;52.850;6.970;2022-09-09T09:04:15;19.70;83.80
60313;DHT22;46158;52.850;6.970;2022-09-09T09:07:00;19.80;83.80
60313;DHT22;46158;52.850;6.970;2022-09-09T09:12:22;19.80;83.90
60313;DHT22;46158;52.850;6.970;2022-09-09T09:14:49;19.80;84.00
60313;DHT22;46158;52.850;6.970;2022-09-09T09:17:21;19.80;84.10
60313;DHT22;46158;52.850;6.970;2022-09-09T09:19:49;19.80;84.00
60313;DHT22;46158;52.850;6.970;2022-09-09T09:22:25;19.80;84.10
60313;DHT22;46158;52.850;6.970;2022-09-09T09:25:16;19.80;84.10
60313;DHT22;46158;52.850;6.970;2022-09-09T09:27:56;19.90;84.10
60313;DHT22;46158;52.850;6.970;2022-09-09T09:30:26;19.90;84.10
60313;DHT22;46158;52.850;6.970;2022-09-09T09:33:18;19.90;84.10
60313;DHT22;46158;52.850;6.970;2022-09-09T09:35:49;19.90;84.10
60313;DHT22;46158;52.850;6.970;2022-09-09T09:38:20;19.90;84.10
60313;DHT22;46158;52.850;6.970;2022-09-09T09:41:05;19.90;84.10
60313;DHT22;46158;52.850;6.970;2022-09-09T09:43:33;19.90;84.10
60313;DHT22;46158;52.850;6.970;2022-09-09T09:46:00;19.90;84.30
60313;DHT22;46158;52.850;6.970;2022-09-09T09:48:27;19.90;84.30
60313;DHT22;46158;52.850;6.970;2022-09-09T09:50:56;19.90;84.40
60313;DHT22;46158;52.850;6.970;2022-09-09T09:53:32;19.90;84.40
60313;DHT22;46158;52.850;6.970;2022-09-09T09:58:30;19.90;84.60
60313;DHT22;46158;52.850;6.970;2022-09-09T10:00:59;19.90;84.60
60313;DHT22;46158;52.850;6.970;2022-09-09T10:03:31;19.90;84.80
60313;DHT22;46158;52.850;6.970;2022-09-09T10:05:57;19.90;84.90
60313;DHT22;46158;52.850;6.970;2022-09-09T10:08:26;19.90;84.90
60313;DHT22;46158;52.850;6.970;2022-09-09T10:16:41;19.90;84.80
60313;DHT22;46158;52.850;6.970;2022-09-09T10:19:15;19.90;84.90
60313;DHT22;46158;52.850;6.970;2022-09-09T10:22:02;20.00;85.00
60313;DHT22;46158;52.850;6.970;2022-09-09T10:27:36;20.00;84.80
60313;DHT22;46158;52.850;6.970;2022-09-09T10:33:13;20.00;84.80
60313;DHT22;46158;52.850;6.970;2022-09-09T10:36:13;20.00;84.80
60313;DHT22;46158;52.850;6.970;2022-09-09T10:38:41;20.00;84.70
60313;DHT22;46158;52.850;6.970;2022-09-09T10:55:00;20.00;84.60
60313;DHT22;46158;52.850;6.970;2022-09-09T10:57:49;20.10;84.50
60313;DHT22;46158;52.850;6.970;2022-09-09T11:03:00;20.10;84.50
60313;DHT22;46158;52.850;6.970;2022-09-09T11:05:36;20.10;84.50
60313;DHT22;46158;52.850;6.970;2022-09-09T11:08:18;20.10;84.50
60313;DHT22;46158;52.850;6.970;2022-09-09T11:13:47;20.10;84.40
60313;DHT22;46158;52.850;6.970;2022-09-09T11:18:57;20.10;84.20
60313;DHT22;46158;52.850;6.970;2022-09-09T11:21:35;20.10;84.20
60313;DHT22;46158;52.850;6.970;2022-09-09T11:24:06;20.10;84.10
60313;DHT22;46158;52.850;6.970;2022-09-09T11:26:41;20.10;84.00
60313;DHT22;46158;52.850;6.970;2022-09-09T11:42:43;20.20;83.80
60313;DHT22;46158;52.850;6.970;2022-09-09T11:45:11;20.20;83.80
60313;DHT22;46158;52.850;6.970;2022-09-09T11:47:51;20.20;83.70
60313;DHT22;46158;52.850;6.970;2022-09-09T11:52:46;20.20;83.60
60313;DHT22;46158;52.850;6.970;2022-09-09T11:55:29;20.20;83.50
60313;DHT22;46158;52.850;6.970;2022-09-09T11:58:04;20.20;83.50
60313;DHT22;46158;52.850;6.970;2022-09-09T12:00:45;20.20;83.40
60313;DHT22;46158;52.850;6.970;2022-09-09T12:03:54;20.20;83.30
60313;DHT22;46158;52.850;6.970;2022-09-09T12:06:28;20.30;83.30
60313;DHT22;46158;52.850;6.970;2022-09-09T12:11:52;20.20;83.20
60313;DHT22;46158;52.850;6.970;2022-09-09T12:14:23;20.20;83.30
60313;DHT22;46158;52.850;6.970;2022-09-09T12:17:19;20.30;83.30
60313;DHT22;46158;52.850;6.970;2022-09-09T12:19:45;20.30;83.10
60313;DHT22;46158;52.850;6.970;2022-09-09T12:22:27;20.20;83.10
60313;DHT22;46158;52.850;6.970;2022-09-09T12:25:20;20.30;83.10
60313;DHT22;46158;52.850;6.970;2022-09-09T12:28:06;20.30;83.00
60313;DHT22;46158;52.850;6.970;2022-09-09T12:31:01;20.30;82.90
60313;DHT22;46158;52.850;6.970;2022-09-09T12:33:36;20.30;82.90
60313;DHT22;46158;52.850;6.970;2022-09-09T12:36:03;20.30;83.00
60313;DHT22;46158;52.850;6.970;2022-09-09T12:38:38;20.30;82.90
60313;DHT22;46158;52.850;6.970;2022-09-09T12:41:04;20.30;82.80
60313;DHT22;46158;52.850;6.970;2022-09-09T12:43:30;20.30;82.80
60313;DHT22;46158;52.850;6.970;2022-09-09T12:46:03;20.30;82.70
60313;DHT22;46158;52.850;6.970;2022-09-09T12:48:38;20.30;82.70
60313;DHT22;46158;52.850;6.970;2022-09-09T12:51:16;20.30;82.70
60313;DHT22;46158;52.850;6.970;2022-09-09T12:53:44;20.30;82.60
60313;DHT22;46158;52.850;6.970;2022-09-09T12:56:19;20.30;82.60
60313;DHT22;46158;52.850;6.970;2022-09-09T12:58:48;20.30;82.50
60313;DHT22;46158;52.850;6.970;2022-09-09T13:01:28;20.30;82.50
60313;DHT22;46158;52.850;6.970;2022-09-09T13:03:55;20.30;82.50
60313;DHT22;46158;52.850;6.970;2022-09-09T13:06:29;20.30;82.50
60313;DHT22;46158;52.850;6.970;2022-09-09T13:08:57;20.30;82.50
60313;DHT22;46158;52.850;6.970;2022-09-09T13:11:41;20.30;82.40
60313;DHT22;46158;52.850;6.970;2022-09-09T13:14:34;20.30;82.30
60313;DHT22;46158;52.850;6.970;2022-09-09T13:17:04;20.30;82.30
60313;DHT22;46158;52.850;6.970;2022-09-09T13:19:36;20.30;82.60
60313;DHT22;46158;52.850;6.970;2022-09-09T13:22:36;20.30;82.30
60313;DHT22;46158;52.850;6.970;2022-09-09T13:25:26;20.30;82.20
60313;DHT22;46158;52.850;6.970;2022-09-09T13:28:04;20.30;82.30
60313;DHT22;46158;52.850;6.970;2022-09-09T13:30:32;20.30;82.30
60313;DHT22;46158;52.850;6.970;2022-09-09T13:35:57;20.30;82.20
60313;DHT22;46158;52.850;6.970;2022-09-09T13:38:24;20.30;82.20
60313;DHT22;46158;52.850;6.970;2022-09-09T13:41:09;20.30;82.20
60313;DHT22;46158;52.850;6.970;2022-09-09T13:43:43;20.40;82.20
60313;DHT22;46158;52.850;6.970;2022-09-09T13:46:37;20.30;82.20
60313;DHT22;46158;52.850;6.970;2022-09-09T13:51:46;20.30;82.30
60313;DHT22;46158;52.850;6.970;2022-09-09T13:54:16;20.30;82.30
60313;DHT22;46158;52.850;6.970;2022-09-09T13:56:43;20.40;82.30
60313;DHT22;46158;52.850;6.970;2022-09-09T13:59:14;20.30;82.30
60313;DHT22;46158;52.850;6.970;2022-09-09T14:01:40;20.30;82.20
60313;DHT22;46158;52.850;6.970;2022-09-09T14:04:07;20.30;82.30
60313;DHT22;46158;52.850;6.970;2022-09-09T14:06:35;20.30;82.30
60313;DHT22;46158;52.850;6.970;2022-09-09T14:09:04;20.30;82.20
60313;DHT22;46158;52.850;6.970;2022-09-09T14:11:31;20.30;82.30
60313;DHT22;46158;52.850;6.970;2022-09-09T14:13:56;20.30;82.20
60313;DHT22;46158;52.850;6.970;2022-09-09T14:16:22;20.40;82.30
60313;DHT22;46158;52.850;6.970;2022-09-09T14:18:48;20.30;82.10
60313;DHT22;46158;52.850;6.970;2022-09-09T14:21:14;20.30;82.00
60313;DHT22;46158;52.850;6.970;2022-09-09T14:23:41;20.30;81.90
60313;DHT22;46158;52.850;6.970;2022-09-09T14:26:08;20.40;81.90
60313;DHT22;46158;52.850;6.970;2022-09-09T14:28:34;20.40;81.90
60313;DHT22;46158;52.850;6.970;2022-09-09T14:31:02;20.40;81.80
60313;DHT22;46158;52.850;6.970;2022-09-09T14:33:28;20.40;81.80
60313;DHT22;46158;52.850;6.970;2022-09-09T14:35:58;20.40;81.80
60313;DHT22;46158;52.850;6.970;2022-09-09T14:38:25;20.40;81.80
60313;DHT22;46158;52.850;6.970;2022-09-09T14:40:50;20.50;81.90
60313;DHT22;46158;52.850;6.970;2022-09-09T14:43:16;20.50;81.80
60313;DHT22;46158;52.850;6.970;2022-09-09T14:45:42;20.50;81.80
60313;DHT22;46158;52.850;6.970;2022-09-09T14:48:08;20.50;81.80
60313;DHT22;46158;52.850;6.970;2022-09-09T14:50:34;20.50;81.80
60313;DHT22;46158;52.850;6.970;2022-09-09T14:53:02;20.50;81.90
60313;DHT22;46158;52.850;6.970;2022-09-09T14:55:28;20.50;81.90
60313;DHT22;46158;52.850;6.970;2022-09-09T14:57:54;20.50;81.90
60313;DHT22;46158;52.850;6.970;2022-09-09T15:00:20;20.50;81.90
60313;DHT22;46158;52.850;6.970;2022-09-09T15:02:46;20.50;81.90
60313;DHT22;46158;52.850;6.970;2022-09-09T15:05:11;20.60;82.00
60313;DHT22;46158;52.850;6.970;2022-09-09T15:07:37;20.60;81.80
60313;DHT22;46158;52.850;6.970;2022-09-09T15:10:03;20.50;81.60
60313;DHT22;46158;52.850;6.970;2022-09-09T15:12:29;20.50;81.40
60313;DHT22;46158;52.850;6.970;2022-09-09T15:14:55;20.50;81.60
60313;DHT22;46158;52.850;6.970;2022-09-09T15:17:21;20.50;81.40
60313;DHT22;46158;52.850;6.970;2022-09-09T15:19:47;20.50;82.10
60313;DHT22;46158;52.850;6.970;2022-09-09T15:22:13;20.50;81.20
60313;DHT22;46158;52.850;6.970;2022-09-09T15:24:38;20.50;81.20
60313;DHT22;46158;52.850;6.970;2022-09-09T15:27:04;20.50;81.20
60313;DHT22;46158;52.850;6.970;2022-09-09T15:29:30;20.50;81.20
60313;DHT22;46158;52.850;6.970;2022-09-09T15:31:55;20.50;81.20
60313;DHT22;46158;52.850;6.970;2022-09-09T15:34:21;20.40;81.10
60313;DHT22;46158;52.850;6.970;2022-09-09T15:36:47;20.40;81.10
60313;DHT22;46158;52.850;6.970;2022-09-09T15:39:17;20.40;81.10
60313;DHT22;46158;52.850;6.970;2022-09-09T15:41:47;20.40;81.20
60313;DHT22;46158;52.850;6.970;2022-09-09T15:44:14;20.40;81.40
60313;DHT22;46158;52.850;6.970;2022-09-09T15:46:51;20.40;81.30
60313;DHT22;46158;52.850;6.970;2022-09-09T15:49:23;20.40;81.40
60313;DHT22;46158;52.850;6.970;2022-09-09T15:51:56;20.40;81.50
60313;DHT22;46158;52.850;6.970;2022-09-09T15:54:24;20.40;81.40
60313;DHT22;46158;52.850;6.970;2022-09-09T15:56:54;20.40;81.30
60313;DHT22;46158;52.850;6.970;2022-09-09T15:59:22;20.40;81.20
60313;DHT22;46158;52.850;6.970;2022-09-09T16:01:48;20.40;81.30
60313;DHT22;46158;52.850;6.970;2022-09-09T16:04:19;20.40;81.20
60313;DHT22;46158;52.850;6.970;2022-09-09T16:06:50;20.40;81.20
60313;DHT22;46158;52.850;6.970;2022-09-09T16:09:16;20.40;81.20
60313;DHT22;46158;52.850;6.970;2022-09-09T16:11:42;20.40;81.10
60313;DHT22;46158;52.850;6.970;2022-09-09T16:14:08;20.40;81.10
60313;DHT22;46158;52.850;6.970;2022-09-09T16:16:34;20.40;81.10
60313;DHT22;46158;52.850;6.970;2022-09-09T16:19:04;20.40;81.00
60313;DHT22;46158;52.850;6.970;2022-09-09T16:21:33;20.40;81.00
60313;DHT22;46158;52.850;6.970;2022-09-09T16:24:01;20.40;81.10
60313;DHT22;46158;52.850;6.970;2022-09-09T16:26:29;20.40;81.10
60313;DHT22;46158;52.850;6.970;2022-09-09T16:28:55;20.40;81.10
60313;DHT22;46158;52.850;6.970;2022-09-09T16:31:24;20.40;81.20
60313;DHT22;46158;52.850;6.970;2022-09-09T16:33:50;20.40;81.10
60313;DHT22;46158;52.850;6.970;2022-09-09T16:36:24;20.40;81.10
60313;DHT22;46158;52.850;6.970;2022-09-09T16:38:54;20.40;81.50
60313;DHT22;46158;52.850;6.970;2022-09-09T16:41:21;20.40;81.40
60313;DHT22;46158;52.850;6.970;2022-09-09T16:43:52;20.40;81.40
60313;DHT22;46158;52.850;6.970;2022-09-09T16:46:19;20.40;81.30
60313;DHT22;46158;52.850;6.970;2022-09-09T16:48:46;20.40;81.30
60313;DHT22;46158;52.850;6.970;2022-09-09T16:51:27;20.40;81.20
60313;DHT22;46158;52.850;6.970;2022-09-09T16:53:53;20.40;81.40
60313;DHT22;46158;52.850;6.970;2022-09-09T16:56:21;20.40;81.60
60313;DHT22;46158;52.850;6.970;2022-09-09T16:58:59;20.40;82.10
60313;DHT22;46158;52.850;6.970;2022-09-09T17:01:27;20.50;82.30
60313;DHT22;46158;52.850;6.970;2022-09-09T17:03:57;20.50;82.50
60313;DHT22;46158;52.850;6.970;2022-09-09T17:06:23;20.50;82.40
60313;DHT22;46158;52.850;6.970;2022-09-09T17:09:00;20.50;82.30
60313;DHT22;46158;52.850;6.970;2022-09-09T17:11:27;20.50;82.10
60313;DHT22;46158;52.850;6.970;2022-09-09T17:13:55;20.50;82.20
60313;DHT22;46158;52.850;6.970;2022-09-09T17:16:22;20.50;82.20
60313;DHT22;46158;52.850;6.970;2022-09-09T17:18:49;20.50;82.20
60313;DHT22;46158;52.850;6.970;2022-09-09T17:21:18;20.50;82.20
60313;DHT22;46158;52.850;6.970;2022-09-09T17:23:45;20.50;82.20
60313;DHT22;46158;52.850;6.970;2022-09-09T17:26:15;20.50;82.20
60313;DHT22;46158;52.850;6.970;2022-09-09T17:28:42;20.50;82.20
60313;DHT22;46158;52.850;6.970;2022-09-09T17:31:10;20.50;82.20
60313;DHT22;46158;52.850;6.970;2022-09-09T17:33:38;20.50;82.30
60313;DHT22;46158;52.850;6.970;2022-09-09T17:36:19;20.50;82.40
60313;DHT22;46158;52.850;6.970;2022-09-09T17:38:47;20.50;82.30
60313;DHT22;46158;52.850;6.970;2022-09-09T17:41:17;20.50;82.20